createdAt,value
2018-12-18T00:00:26.362Z,96485.20
2018-12-18T00:02:58.621Z,96477.98
2018-12-18T00:05:36.079Z,96475.83
2018-12-18T00:08:06.647Z,96472.38
2018-12-18T00:10:41.962Z,96475.92
2018-12-18T00:13:12.200Z,96462.66
2018-12-18T00:15:44.321Z,96468.86
2018-12-18T00:18:14.517Z,96474.81
2018-12-18T00:20:44.668Z,96468.86
2018-12-18T00:23:14.858Z,96477.72
2018-12-18T00:25:44.996Z,96470.45
2018-12-18T00:28:15.170Z,96467.09
2018-12-18T00:30:45.299Z,96471.59
2018-12-18T00:33:15.552Z,96469.90
2018-12-18T00:35:45.720Z,96469.16
2018-12-18T00:38:15.876Z,96473.36
2018-12-18T00:40:48.218Z,96468.38
2018-12-18T00:43:18.451Z,96466.83
2018-12-18T00:45:49.041Z,96466.83
2018-12-18T00:48:19.259Z,96474.94
2018-12-18T00:50:49.493Z,96473.41
2018-12-18T00:53:19.646Z,96475.91
2018-12-18T00:55:49.996Z,96472.92
2018-12-18T00:58:20.175Z,96473.81
2018-12-18T01:00:50.316Z,96478.01
2018-12-18T01:03:20.471Z,96479.74
2018-12-18T01:05:50.625Z,96474.86
2018-12-18T01:08:20.913Z,96480.63
2018-12-18T01:10:51.069Z,96478.56
2018-12-18T01:13:21.242Z,96484.54
2018-12-18T01:15:51.388Z,96483.95
2018-12-18T01:18:21.595Z,96485.60
2018-12-18T01:20:51.707Z,96486.56
2018-12-18T01:23:21.887Z,96486.25
2018-12-18T01:25:52.061Z,96481.13
2018-12-18T01:28:22.250Z,96490.67
2018-12-18T01:30:52.441Z,96489.33
2018-12-18T01:33:22.600Z,96489.67
2018-12-18T01:35:52.723Z,96497.16
2018-12-18T01:38:22.929Z,96495.80
2018-12-18T01:40:53.095Z,96491.26
2018-12-18T01:43:23.268Z,96489.00
2018-12-18T01:45:53.371Z,96484.04
2018-12-18T01:48:23.542Z,96479.23
2018-12-18T01:50:53.703Z,96480.17
2018-12-18T01:53:23.921Z,96472.13
2018-12-18T01:55:54.060Z,96474.44
2018-12-18T01:58:24.240Z,96471.97
2018-12-18T02:00:55.620Z,96468.17
2018-12-18T02:03:26.671Z,96467.45
2018-12-18T02:05:56.887Z,96460.16
2018-12-18T02:08:27.065Z,96460.92
2018-12-18T02:10:57.901Z,96467.09
2018-12-18T02:13:28.054Z,96458.70
2018-12-18T02:15:58.354Z,96456.95
2018-12-18T02:18:28.638Z,96459.45
2018-12-18T02:20:58.797Z,96455.61
2018-12-18T02:23:29.026Z,96459.13
2018-12-18T02:25:59.194Z,96452.55
2018-12-18T02:28:29.435Z,96455.34
2018-12-18T02:30:59.634Z,96451.61
2018-12-18T02:33:29.820Z,96451.34
2018-12-18T02:36:00.000Z,96452.91
2018-12-18T02:38:30.168Z,96445.73
2018-12-18T02:41:00.391Z,96447.19
2018-12-18T02:43:31.590Z,96449.63
2018-12-18T02:46:01.813Z,96454.20
2018-12-18T02:48:32.123Z,96455.53
2018-12-18T02:51:02.291Z,96444.00
2018-12-18T02:53:32.441Z,96440.45
2018-12-18T02:56:02.576Z,96443.92
2018-12-18T02:58:32.740Z,96445.47
2018-12-18T03:01:02.911Z,96442.64
2018-12-18T03:03:34.136Z,96444.19
2018-12-18T03:06:04.324Z,96438.30
2018-12-18T03:08:41.249Z,96441.56
2018-12-18T03:11:15.478Z,96433.78
2018-12-18T03:13:45.700Z,96437.45
2018-12-18T03:16:15.928Z,96426.85
2018-12-18T03:18:46.287Z,96424.26
2018-12-18T03:21:17.718Z,96426.62
2018-12-18T03:23:47.866Z,96429.80
2018-12-18T03:26:18.117Z,96425.16
2018-12-18T03:28:48.275Z,96426.01
2018-12-18T03:31:18.440Z,96413.73
2018-12-18T03:33:50.213Z,96420.16
2018-12-18T03:36:20.357Z,96407.28
2018-12-18T03:38:50.574Z,96412.53
2018-12-18T03:41:20.734Z,96408.98
2018-12-18T03:43:50.967Z,96415.34
2018-12-18T03:46:21.111Z,96415.92
2018-12-18T03:48:52.540Z,96406.95
2018-12-18T03:51:22.702Z,96401.16
2018-12-18T03:53:52.875Z,96400.42
2018-12-18T03:56:23.008Z,96396.63
2018-12-18T03:58:53.138Z,96393.59
2018-12-18T04:01:23.253Z,96395.73
2018-12-18T04:03:53.417Z,96394.77
2018-12-18T04:06:23.572Z,96390.98
2018-12-18T04:08:53.727Z,96401.59
2018-12-18T04:11:23.975Z,96409.83
2018-12-18T04:13:54.131Z,96404.91
2018-12-18T04:16:24.499Z,96414.91
2018-12-18T04:18:54.686Z,96415.20
2018-12-18T04:21:24.874Z,96418.08
2018-12-18T04:23:55.073Z,96432.88
2018-12-18T04:26:25.261Z,96428.75
2018-12-18T04:28:55.430Z,96426.77
2018-12-18T04:31:25.550Z,96424.86
2018-12-18T04:33:55.691Z,96423.91
2018-12-18T04:36:25.844Z,96420.17
2018-12-18T04:38:56.007Z,96419.67
2018-12-18T04:41:26.152Z,96407.48
2018-12-18T04:43:56.327Z,96410.38
2018-12-18T04:46:26.545Z,96416.39
2018-12-18T04:48:56.826Z,96421.58
2018-12-18T04:51:26.946Z,96410.81
2018-12-18T04:53:57.135Z,96409.48
2018-12-18T04:56:27.298Z,96410.80
2018-12-18T04:58:58.642Z,96408.53
2018-12-18T05:01:29.573Z,96410.16
2018-12-18T05:03:59.828Z,96409.86
2018-12-18T05:06:29.988Z,96404.03
2018-12-18T05:09:00.155Z,96408.07
2018-12-18T05:11:30.322Z,96407.34
2018-12-18T05:14:00.524Z,96403.63
2018-12-18T05:16:30.667Z,96396.77
2018-12-18T05:19:00.818Z,96397.80
2018-12-18T05:21:30.967Z,96391.74
2018-12-18T05:24:01.146Z,96397.60
2018-12-18T05:26:31.321Z,96396.50
2018-12-18T05:29:01.481Z,96396.41
2018-12-18T05:31:31.603Z,96400.17
2018-12-18T05:34:01.766Z,96398.39
2018-12-18T05:36:31.897Z,96399.97
2018-12-18T05:39:02.467Z,96398.63
2018-12-18T05:41:34.621Z,96400.98
2018-12-18T05:44:06.780Z,96401.42
2018-12-18T05:46:36.909Z,96408.41
2018-12-18T05:49:07.054Z,96407.77
2018-12-18T05:51:37.429Z,96411.62
2018-12-18T05:54:07.547Z,96412.78
2018-12-18T05:56:37.681Z,96416.30
2018-12-18T05:59:07.892Z,96419.48
2018-12-18T06:01:38.113Z,96428.11
2018-12-18T06:04:08.380Z,96423.63
2018-12-18T06:06:38.586Z,96425.63
2018-12-18T06:09:09.038Z,96424.17
2018-12-18T06:11:39.251Z,96426.25
2018-12-18T06:14:09.406Z,96422.91
2018-12-18T06:16:39.583Z,96429.03
2018-12-18T06:19:09.818Z,96431.57
2018-12-18T06:21:40.058Z,96430.23
2018-12-18T06:24:10.230Z,96431.08
2018-12-18T06:26:40.355Z,96431.30
2018-12-18T06:29:10.511Z,96432.47
2018-12-18T06:31:40.672Z,96432.63
2018-12-18T06:34:10.849Z,96433.33
2018-12-18T06:36:41.004Z,96440.78
2018-12-18T06:39:11.159Z,96434.81
2018-12-18T06:41:41.378Z,96439.60
2018-12-18T06:44:11.517Z,96437.05
2018-12-18T06:46:41.735Z,96437.89
2018-12-18T06:49:12.943Z,96436.61
2018-12-18T06:51:43.089Z,96434.17
2018-12-18T06:54:13.262Z,96431.07
2018-12-18T06:56:43.476Z,96440.45
2018-12-18T06:59:13.660Z,96439.70
2018-12-18T07:01:43.789Z,96433.15
2018-12-18T07:04:13.996Z,96431.61
2018-12-18T07:06:45.259Z,96427.88
2018-12-18T07:09:15.438Z,96424.61
2018-12-18T07:11:45.590Z,96425.68
2018-12-18T07:14:15.834Z,96426.58
2018-12-18T07:16:46.061Z,96420.35
2018-12-18T07:19:16.263Z,96425.63
2018-12-18T07:21:46.522Z,96421.27
2018-12-18T07:24:16.802Z,96425.67
2018-12-18T07:26:47.038Z,96426.55
2018-12-18T07:29:17.242Z,96427.78
2018-12-18T07:31:47.490Z,96429.09
2018-12-18T07:34:17.690Z,96430.64
2018-12-18T07:36:47.961Z,96426.03
2018-12-18T07:39:18.178Z,96426.56
2018-12-18T07:41:49.222Z,96435.91
2018-12-18T07:44:20.534Z,96436.06
2018-12-18T07:46:50.739Z,96434.25
2018-12-18T07:49:21.228Z,96427.83
2018-12-18T07:51:51.460Z,96421.82
2018-12-18T07:54:21.693Z,96422.14
2018-12-18T07:56:53.003Z,96423.97
2018-12-18T07:59:23.261Z,96429.92
2018-12-18T08:01:53.471Z,96433.56
2018-12-18T08:04:23.736Z,96433.69
2018-12-18T08:06:53.866Z,96423.80
2018-12-18T08:09:24.069Z,96426.73
2018-12-18T08:11:54.246Z,96426.25
2018-12-18T08:14:24.465Z,96422.83
2018-12-18T08:16:54.600Z,96424.42
2018-12-18T08:19:24.808Z,96421.61
2018-12-18T08:21:54.993Z,96420.13
2018-12-18T08:24:25.152Z,96403.48
2018-12-18T08:26:55.304Z,96409.48
2018-12-18T08:29:25.486Z,96404.48
2018-12-18T08:31:56.600Z,96401.28
2018-12-18T08:34:26.827Z,96393.45
2018-12-18T08:36:56.987Z,96395.05
2018-12-18T08:39:27.265Z,96395.34
2018-12-18T08:41:57.479Z,96383.45
2018-12-18T08:44:27.702Z,96386.08
2018-12-18T08:46:57.883Z,96378.52
2018-12-18T08:49:28.034Z,96381.55
2018-12-18T08:51:59.316Z,96380.66
2018-12-18T08:54:30.488Z,96374.65
2018-12-18T08:57:00.968Z,96374.15
2018-12-18T08:59:31.743Z,96373.82
2018-12-18T09:02:01.945Z,96377.95
2018-12-18T09:04:32.145Z,96376.01
2018-12-18T09:07:02.391Z,96371.38
2018-12-18T09:09:33.646Z,96370.86
2018-12-18T09:12:03.870Z,96364.14
2018-12-18T09:14:34.462Z,96361.84
2018-12-18T09:17:06.837Z,96359.89
2018-12-18T09:19:38.059Z,96353.97
2018-12-18T09:22:09.508Z,96347.75
2018-12-18T09:24:39.780Z,96334.72
2018-12-18T09:27:10.101Z,96331.11
2018-12-18T09:29:40.410Z,96323.03
2018-12-18T09:32:10.587Z,96324.25
2018-12-18T09:34:40.715Z,96314.73
2018-12-18T09:37:10.938Z,96315.23
2018-12-18T09:39:42.761Z,96312.58
2018-12-18T09:42:18.341Z,96309.79
2018-12-18T09:44:48.495Z,96310.84
2018-12-18T09:47:18.692Z,96316.89
2018-12-18T09:49:48.879Z,96308.95
2018-12-18T09:52:19.259Z,96310.03
2018-12-18T09:54:49.867Z,96306.17
2018-12-18T09:57:25.440Z,96308.77
2018-12-18T09:59:55.669Z,96302.93
2018-12-18T10:02:25.828Z,96296.14
2018-12-18T10:04:56.056Z,96287.55
2018-12-18T10:07:26.294Z,96290.89
2018-12-18T10:09:57.516Z,96295.30
2018-12-18T10:12:32.908Z,96296.52
2018-12-18T10:15:03.060Z,96288.93
2018-12-18T10:17:33.360Z,96289.73
2018-12-18T10:20:03.700Z,96285.67
2018-12-18T10:22:34.044Z,96277.73
2018-12-18T10:25:04.341Z,96267.01
2018-12-18T10:27:34.628Z,96273.98
2018-12-18T10:30:05.278Z,96273.72
2018-12-18T10:32:35.618Z,96265.05
2018-12-18T10:35:07.048Z,96277.29
2018-12-18T10:37:37.295Z,96266.52
2018-12-18T10:40:10.497Z,96260.78
2018-12-18T10:42:40.929Z,96254.77
2018-12-18T10:45:18.137Z,96250.84
2018-12-18T10:47:48.338Z,96253.21
2018-12-18T10:50:18.798Z,96248.44
2018-12-18T10:52:49.036Z,96245.86
2018-12-18T10:55:19.173Z,96235.45
2018-12-18T10:57:50.372Z,96231.65
2018-12-18T11:00:25.791Z,96220.04
2018-12-18T11:02:56.597Z,96221.70
2018-12-18T11:05:26.869Z,96222.80
2018-12-18T11:07:57.057Z,96220.03
2018-12-18T11:10:27.288Z,96214.95
2018-12-18T11:13:02.697Z,96218.94
2018-12-18T11:15:32.881Z,96214.03
2018-12-18T11:18:03.069Z,96212.47
2018-12-18T11:20:33.359Z,96216.53
2018-12-18T11:23:03.670Z,96214.13
2018-12-18T11:25:33.890Z,96210.41
2018-12-18T11:28:04.263Z,96201.01
2018-12-18T11:30:34.470Z,96193.62
2018-12-18T11:33:04.703Z,96182.02
2018-12-18T11:35:34.897Z,96179.34
2018-12-18T11:38:05.171Z,96173.69
2018-12-18T11:40:35.356Z,96166.86
2018-12-18T11:43:05.569Z,96159.60
2018-12-18T11:45:35.915Z,96158.59
2018-12-18T11:48:06.277Z,96155.23
2018-12-18T11:50:36.580Z,96147.96
2018-12-18T11:53:07.019Z,96143.89
2018-12-18T11:55:37.181Z,96142.48
2018-12-18T11:58:07.481Z,96136.62
2018-12-18T12:00:37.968Z,96130.43
2018-12-18T12:03:08.339Z,96128.69
2018-12-18T12:05:40.573Z,96114.95
2018-12-18T12:08:11.732Z,96107.64
2018-12-18T12:10:42.066Z,96107.30
2018-12-18T12:13:12.346Z,96107.37
2018-12-18T12:15:42.502Z,96094.99
2018-12-18T12:18:12.785Z,96093.64
2018-12-18T12:20:42.947Z,96084.55
2018-12-18T12:23:13.140Z,96083.47
2018-12-18T12:25:43.339Z,96080.36
2018-12-18T12:28:13.607Z,96084.34
2018-12-18T12:30:43.756Z,96081.09
2018-12-18T12:33:13.942Z,96090.22
2018-12-18T12:35:44.101Z,96079.61
2018-12-18T12:38:14.291Z,96076.83
2018-12-18T12:40:44.502Z,96082.02
2018-12-18T12:43:14.877Z,96076.29
2018-12-18T12:45:45.224Z,96076.13
2018-12-18T12:48:17.401Z,96069.27
2018-12-18T12:50:47.601Z,96075.13
2018-12-18T12:53:17.913Z,96058.91
2018-12-18T12:55:48.067Z,96056.19
2018-12-18T12:58:18.338Z,96044.38
2018-12-18T13:00:48.517Z,96032.57
2018-12-18T13:03:18.666Z,96025.72
2018-12-18T13:05:49.169Z,96040.51
2018-12-18T13:08:19.510Z,96040.42
2018-12-18T13:10:49.807Z,96045.68
2018-12-18T13:13:20.046Z,96039.25
2018-12-18T13:15:50.274Z,96043.57
2018-12-18T13:18:20.567Z,96033.70
2018-12-18T13:20:50.741Z,96029.28
2018-12-18T13:23:20.904Z,96026.49
2018-12-18T13:25:52.140Z,96022.99
2018-12-18T13:28:22.306Z,96021.01
2018-12-18T13:30:52.593Z,96019.05
2018-12-18T13:33:22.861Z,96005.45
2018-12-18T13:35:53.063Z,96000.15
2018-12-18T13:38:23.492Z,96001.41
2018-12-18T13:40:54.611Z,95992.47
2018-12-18T13:43:25.036Z,95991.09
2018-12-18T13:45:56.389Z,95993.86
2018-12-18T13:48:26.654Z,95989.31
2018-12-18T13:50:56.821Z,95973.01
2018-12-18T13:53:26.994Z,95972.65
2018-12-18T13:55:57.166Z,95964.56
2018-12-18T13:58:27.504Z,95955.86
2018-12-18T14:00:58.931Z,95957.15
2018-12-18T14:03:29.290Z,95953.50
2018-12-18T14:05:59.449Z,95954.39
2018-12-18T14:08:29.774Z,95969.18
2018-12-18T14:10:59.931Z,95982.78
2018-12-18T14:13:30.160Z,95982.03
2018-12-18T14:16:00.404Z,95970.82
2018-12-18T14:18:30.973Z,95957.23
2018-12-18T14:21:01.207Z,95949.67
2018-12-18T14:23:31.539Z,95951.36
2018-12-18T14:26:01.672Z,95944.56
2018-12-18T14:28:32.947Z,95944.79
2018-12-18T14:31:03.194Z,95944.88
2018-12-18T14:33:33.362Z,95934.41
2018-12-18T14:36:03.688Z,95930.50
2018-12-18T14:38:34.088Z,95920.12
2018-12-18T14:41:04.376Z,95915.92
2018-12-18T14:43:34.597Z,95908.30
2018-12-18T14:46:04.757Z,95910.97
2018-12-18T14:48:35.149Z,95913.63
2018-12-18T14:51:05.420Z,95910.93
2018-12-18T14:53:35.741Z,95907.87
2018-12-18T14:56:06.044Z,95896.52
2018-12-18T14:58:36.498Z,95898.25
2018-12-18T15:01:06.645Z,95904.09
2018-12-18T15:03:36.921Z,95910.13
2018-12-18T15:06:07.246Z,95893.64
2018-12-18T15:08:37.454Z,95888.06
2018-12-18T15:11:07.599Z,95881.29
2018-12-18T15:13:37.995Z,95891.03
2018-12-18T15:16:08.213Z,95882.28
2018-12-18T15:18:38.384Z,95882.42
2018-12-18T15:21:08.595Z,95868.39
2018-12-18T15:23:38.825Z,95865.80
2018-12-18T15:26:08.993Z,95862.36
2018-12-18T15:28:39.336Z,95863.99
2018-12-18T15:31:10.012Z,95866.41
2018-12-18T15:33:40.254Z,95875.67
2018-12-18T15:36:10.449Z,95880.28
2018-12-18T15:38:40.648Z,95874.75
2018-12-18T15:41:10.849Z,95878.11
2018-12-18T15:43:41.208Z,95878.40
2018-12-18T15:46:11.411Z,95872.86
2018-12-18T15:48:41.703Z,95878.75
2018-12-18T15:51:11.906Z,95874.66
2018-12-18T15:53:42.211Z,95886.15
2018-12-18T15:56:12.369Z,95878.20
2018-12-18T15:58:42.590Z,95874.42
2018-12-18T16:01:12.820Z,95871.18
2018-12-18T16:03:43.081Z,95868.98
2018-12-18T16:06:14.378Z,95865.64
2018-12-18T16:08:44.569Z,95860.59
2018-12-18T16:11:15.121Z,95859.94
2018-12-18T16:13:45.350Z,95864.59
2018-12-18T16:16:15.606Z,95857.00
2018-12-18T16:18:45.840Z,95864.84
2018-12-18T16:21:16.040Z,95870.78
2018-12-18T16:23:46.261Z,95873.38
2018-12-18T16:26:16.464Z,95870.42
2018-12-18T16:28:46.742Z,95872.22
2018-12-18T16:31:16.996Z,95873.19
2018-12-18T16:33:47.185Z,95868.33
2018-12-18T16:36:17.458Z,95866.81
2018-12-18T16:38:47.772Z,95872.95
2018-12-18T16:41:18.097Z,95871.26
2018-12-18T16:43:48.427Z,95860.37
2018-12-18T16:46:18.763Z,95864.84
2018-12-18T16:48:49.020Z,95862.02
2018-12-18T16:51:19.431Z,95862.63
2018-12-18T16:53:49.634Z,95866.80
2018-12-18T16:56:19.903Z,95866.08
2018-12-18T16:58:50.051Z,95870.09
2018-12-18T17:01:20.215Z,95866.84
2018-12-18T17:03:50.445Z,95871.38
2018-12-18T17:06:20.749Z,95871.00
2018-12-18T17:08:50.957Z,95873.06
2018-12-18T17:11:21.193Z,95869.88
2018-12-18T17:13:51.414Z,95872.23
2018-12-18T17:16:21.620Z,95872.41
2018-12-18T17:18:51.973Z,95871.63
2018-12-18T17:21:22.324Z,95870.22
2018-12-18T17:23:52.566Z,95864.17
2018-12-18T17:26:22.819Z,95870.59
2018-12-18T17:28:53.063Z,95869.61
2018-12-18T17:31:23.474Z,95863.33
2018-12-18T17:33:53.735Z,95865.21
2018-12-18T17:36:23.954Z,95861.77
2018-12-18T17:38:54.138Z,95858.29
2018-12-18T17:41:24.388Z,95860.41
2018-12-18T17:43:55.142Z,95862.34
2018-12-18T17:46:25.344Z,95852.03
2018-12-18T17:48:55.620Z,95844.54
2018-12-18T17:51:27.191Z,95847.58
2018-12-18T17:53:57.415Z,95850.84
2018-12-18T17:56:27.630Z,95850.91
2018-12-18T17:58:57.921Z,95850.30
2018-12-18T18:01:28.290Z,95848.55
2018-12-18T18:03:58.709Z,95856.17
2018-12-18T18:06:28.844Z,95858.90
2018-12-18T18:08:59.144Z,95861.32
2018-12-18T18:11:29.367Z,95866.74
2018-12-18T18:13:59.677Z,95866.49
2018-12-18T18:16:29.841Z,95872.23
2018-12-18T18:19:00.125Z,95875.65
2018-12-18T18:21:30.363Z,95877.87
2018-12-18T18:24:00.559Z,95883.23
2018-12-18T18:26:32.205Z,95877.03
2018-12-18T18:29:03.336Z,95877.33
2018-12-18T18:31:36.064Z,95864.91
2018-12-18T18:34:07.456Z,95857.07
2018-12-18T18:36:39.768Z,95860.02
2018-12-18T18:39:10.193Z,95856.85
2018-12-18T18:41:40.394Z,95846.91
2018-12-18T18:44:10.675Z,95852.58
2018-12-18T18:46:40.949Z,95853.64
2018-12-18T18:49:11.211Z,95856.63
2018-12-18T18:51:41.421Z,95842.06
2018-12-18T18:54:11.624Z,95840.67
2018-12-18T18:56:41.871Z,95838.85
2018-12-18T18:59:12.084Z,95831.58
2018-12-18T19:01:42.265Z,95826.08
2018-12-18T19:04:13.741Z,95816.86
2018-12-18T19:06:44.413Z,95817.02
2018-12-18T19:09:15.212Z,95826.39
2018-12-18T19:11:45.614Z,95829.60
2018-12-18T19:14:15.902Z,95825.74
2018-12-18T19:16:46.292Z,95816.64
2018-12-18T19:19:16.837Z,95805.11
2018-12-18T19:21:47.874Z,95801.60
2018-12-18T19:24:18.685Z,95802.88
2018-12-18T19:26:49.734Z,95799.38
2018-12-18T19:29:19.880Z,95797.78
2018-12-18T19:31:50.149Z,95799.13
2018-12-18T19:34:20.331Z,95799.14
2018-12-18T19:36:50.892Z,95794.37
2018-12-18T19:39:21.430Z,95780.56
2018-12-18T19:41:51.557Z,95780.59
2018-12-18T19:44:21.728Z,95781.19
2018-12-18T19:46:52.157Z,95777.01
2018-12-18T19:49:22.540Z,95775.37
2018-12-18T19:51:52.951Z,95766.73
2018-12-18T19:54:24.310Z,95767.23
2018-12-18T19:56:54.810Z,95760.49
2018-12-18T19:59:25.108Z,95761.77
2018-12-18T20:01:55.298Z,95756.80
2018-12-18T20:04:25.591Z,95759.08
2018-12-18T20:06:55.825Z,95756.02
2018-12-18T20:09:26.161Z,95757.50
2018-12-18T20:11:56.690Z,95769.23
2018-12-18T20:14:27.379Z,95763.54
2018-12-18T20:16:57.912Z,95762.13
2018-12-18T20:19:28.309Z,95769.14
2018-12-18T20:21:58.571Z,95769.95
2018-12-18T20:24:28.893Z,95766.05
2018-12-18T20:26:59.524Z,95757.09
2018-12-18T20:29:30.170Z,95764.99
2018-12-18T20:32:00.938Z,95776.30
2018-12-18T20:34:31.366Z,95775.66
2018-12-18T20:37:01.723Z,95776.56
2018-12-18T20:39:32.037Z,95777.37
2018-12-18T20:42:02.522Z,95782.13
2018-12-18T20:44:33.589Z,95773.16
2018-12-18T20:47:04.169Z,95779.92
2018-12-18T20:49:34.552Z,95774.80
2018-12-18T20:52:05.295Z,95773.45
2018-12-18T20:54:35.503Z,95768.73
2018-12-18T20:57:05.929Z,95768.55
2018-12-18T20:59:36.176Z,95768.16
2018-12-18T21:02:06.587Z,95767.62
2018-12-18T21:04:38.000Z,95757.08
2018-12-18T21:07:08.483Z,95750.61
2018-12-18T21:09:39.020Z,95751.73
2018-12-18T21:12:09.265Z,95747.27
2018-12-18T21:14:39.611Z,95748.16
2018-12-18T21:17:09.823Z,95739.20
2018-12-18T21:19:40.104Z,95737.83
2018-12-18T21:22:12.124Z,95739.59
2018-12-18T21:24:42.438Z,95732.54
2018-12-18T21:27:12.698Z,95728.59
2018-12-18T21:29:43.173Z,95724.42
2018-12-18T21:32:13.503Z,95727.25
2018-12-18T21:34:43.917Z,95738.36
2018-12-18T21:37:15.616Z,95734.66
2018-12-18T21:39:45.946Z,95739.25
2018-12-18T21:42:16.375Z,95744.00
2018-12-18T21:44:46.897Z,95750.21
2018-12-18T21:47:17.108Z,95749.03
2018-12-18T21:49:47.579Z,95741.90
2018-12-18T21:52:17.757Z,95744.45
2018-12-18T21:54:48.168Z,95746.20
2018-12-18T21:57:18.442Z,95735.55
2018-12-18T21:59:48.811Z,95729.11
2018-12-18T22:02:19.248Z,95723.12
2018-12-18T22:04:50.166Z,95705.42
2018-12-18T22:07:20.404Z,95693.39
2018-12-18T22:09:50.660Z,95690.68
2018-12-18T22:12:22.789Z,95702.80
2018-12-18T22:14:53.070Z,95695.86
2018-12-18T22:17:23.559Z,95683.98
2018-12-18T22:19:53.760Z,95669.02
2018-12-18T22:22:23.872Z,95654.94
2018-12-18T22:24:54.131Z,95643.72
2018-12-18T22:27:24.290Z,95645.39
2018-12-18T22:29:54.666Z,95648.36
2018-12-18T22:32:25.087Z,95649.44
2018-12-18T22:34:55.431Z,95637.30
2018-12-18T22:37:25.630Z,95629.45
2018-12-18T22:39:55.853Z,95623.52
2018-12-18T22:42:26.087Z,95625.66
2018-12-18T22:44:56.262Z,95620.45
2018-12-18T22:47:26.430Z,95619.81
2018-12-18T22:49:56.927Z,95618.35
2018-12-18T22:52:27.258Z,95617.12
2018-12-18T22:54:57.529Z,95617.59
2018-12-18T22:57:27.692Z,95610.63
2018-12-18T22:59:57.893Z,95615.23
2018-12-18T23:02:28.182Z,95614.30
2018-12-18T23:05:00.543Z,95623.41
2018-12-18T23:07:31.873Z,95624.19
2018-12-18T23:10:04.271Z,95623.98
2018-12-18T23:12:34.518Z,95620.55
2018-12-18T23:15:05.665Z,95625.42
2018-12-18T23:17:35.945Z,95630.17
2018-12-18T23:20:06.520Z,95628.72
2018-12-18T23:22:36.821Z,95629.77
2018-12-18T23:25:07.076Z,95624.25
2018-12-18T23:27:37.421Z,95615.64
2018-12-18T23:30:07.899Z,95612.45
2018-12-18T23:32:38.275Z,95602.23
2018-12-18T23:35:09.551Z,95599.06
2018-12-18T23:37:39.743Z,95603.94
2018-12-18T23:40:09.981Z,95592.20
2018-12-18T23:42:40.167Z,95590.33
2018-12-18T23:45:10.346Z,95582.59
2018-12-18T23:47:40.542Z,95582.19
2018-12-18T23:50:10.897Z,95577.38
2018-12-18T23:52:41.106Z,95578.11
2018-12-18T23:55:11.400Z,95567.63
2018-12-18T23:57:41.728Z,95560.75
